Time;durP1;ratioP1;P1;durP2;ratioP2;P2;SDS_P1;SDS_P2;PMS_P1;PMS_P2;Temp;Humidity;BMP_temperature;BMP_pressure;BME280_temperature;BME280_humidity;BME280_pressure;Samples;Min_cycle;Max_cycle;Signal;HPM_P1;HPM_P2
2023/10/16 00:01:09;;;;;;;42.50;27.00;;;;;;;6.70;100.00;99387.30;109216;1253;59361;-56
2023/10/16 00:03:38;;;;;;;39.10;25.80;;;;;;;6.64;100.00;99388.21;109214;1253;73594;-55
2023/10/16 00:06:06;;;;;;;42.90;29.00;;;;;;;6.58;100.00;99386.46;109269;1253;67142;-54
2023/10/16 00:08:34;;;;;;;42.30;27.40;;;;;;;6.56;100.00;99390.16;109228;1254;71485;-55
2023/10/16 00:11:05;;;;;;;41.10;27.20;;;;;;;6.54;100.00;99386.05;109189;1253;59483;-55
2023/10/16 00:13:37;;;;;;;36.80;26.00;;;;;;;6.54;100.00;99386.73;109266;1253;58895;-55
2023/10/16 00:16:05;;;;;;;42.90;26.70;;;;;;;6.55;100.00;99390.23;109339;1253;74614;-55
2023/10/16 00:18:35;;;;;;;39.30;26.80;;;;;;;6.56;100.00;99386.73;109318;1253;66108;-57
2023/10/16 00:21:05;;;;;;;44.20;27.60;;;;;;;6.55;100.00;99386.96;109333;1253;73293;-55
2023/10/16 00:23:39;;;;;;;41.00;26.10;;;;;;;6.53;100.00;99381.89;109122;1253;281665;-55
2023/10/16 00:26:07;;;;;;;39.80;27.30;;;;;;;6.47;100.00;99376.12;109334;1253;60093;-54
2023/10/16 00:28:35;;;;;;;43.10;26.60;;;;;;;6.45;100.00;99376.65;109288;1253;74699;-56
2023/10/16 00:31:08;;;;;;;39.60;25.60;;;;;;;6.42;100.00;99381.77;109268;1253;67030;-54
2023/10/16 00:33:36;;;;;;;42.30;27.70;;;;;;;6.39;100.00;99378.11;109353;1253;72732;-54
2023/10/16 00:36:05;;;;;;;39.20;27.10;;;;;;;6.38;100.00;99383.48;109286;1253;58939;-55
2023/10/16 00:38:36;;;;;;;38.10;26.90;;;;;;;6.34;100.00;99380.66;109261;1253;59078;-55
2023/10/16 00:41:17;;;;;;;;;;;;;;;6.29;100.00;99373.47;109242;1253;74790;-55
2023/10/16 00:43:44;;;;;;;38.30;26.30;;;;;;;6.23;100.00;99365.86;109289;1253;66324;-55
2023/10/16 00:46:30;;;;;;;41.30;27.30;;;;;;;6.18;100.00;99358.05;109254;1253;72745;-57
2023/10/16 00:48:58;;;;;;;42.00;27.90;;;;;;;6.12;100.00;99355.18;109316;1253;59342;-55
2023/10/16 00:51:25;;;;;;;40.30;26.50;;;;;;;6.08;100.00;99357.38;109335;1252;59492;-55
2023/10/16 00:54:18;;;;;;;42.40;28.40;;;;;;;6.05;100.00;99355.67;109296;1253;75359;-55
2023/10/16 00:56:49;;;;;;;43.70;28.40;;;;;;;6.00;100.00;99357.91;109459;1253;65766;-55
2023/10/16 00:59:17;;;;;;;40.80;27.90;;;;;;;5.93;100.00;99353.57;109234;1253;72664;-54
2023/10/16 01:01:44;;;;;;;41.70;27.50;;;;;;;5.89;100.00;99354.35;109394;1253;61154;-55
2023/10/16 01:04:19;;;;;;;38.20;27.20;;;;;;;5.86;100.00;99357.33;109452;1253;60455;-54
2023/10/16 01:06:47;;;;;;;39.50;25.80;;;;;;;5.82;100.00;99356.91;109315;1252;74767;-55
2023/10/16 01:09:24;;;;;;;38.00;26.90;;;;;;;5.80;100.00;99355.89;109422;1253;66754;-54
2023/10/16 01:11:54;;;;;;;36.40;24.60;;;;;;;5.81;100.00;99360.08;109486;1252;71117;-55
2023/10/16 01:14:22;;;;;;;34.40;25.70;;;;;;;5.81;100.00;99363.02;109419;1253;58946;-55
2023/10/16 01:16:50;;;;;;;36.70;25.30;;;;;;;5.80;100.00;99360.73;109407;1253;58989;-55
2023/10/16 01:19:21;;;;;;;39.30;25.90;;;;;;;5.77;100.00;99359.66;109229;1252;74870;-55
2023/10/16 01:21:49;;;;;;;44.10;27.00;;;;;;;5.76;100.00;99357.06;109327;1253;67751;-55
2023/10/16 01:24:19;;;;;;;36.40;26.00;;;;;;;5.75;100.00;99354.92;109388;1253;72730;-55
2023/10/16 01:26:48;;;;;;;40.50;26.90;;;;;;;5.72;100.00;99351.45;109360;1251;58911;-55
2023/10/16 01:29:16;;;;;;;36.90;25.50;;;;;;;5.70;100.00;99351.54;109503;1251;58903;-55
2023/10/16 01:31:52;;;;;;;36.50;26.60;;;;;;;5.66;100.00;99345.71;109410;1251;73550;-55
2023/10/16 01:34:22;;;;;;;45.10;28.60;;;;;;;5.61;100.00;99343.42;109455;1251;67005;-55
2023/10/16 01:36:51;;;;;;;39.20;26.60;;;;;;;5.56;100.00;99338.94;109412;1252;72864;-55
2023/10/16 01:42:11;;;;;;;38.80;27.70;;;;;;;5.48;100.00;99340.03;109466;1251;59028;-54
2023/10/16 01:44:39;;;;;;;40.50;27.00;;;;;;;5.45;100.00;99335.79;109453;1251;73926;-55
2023/10/16 01:47:15;;;;;;;43.20;28.50;;;;;;;5.42;100.00;99327.29;109391;1251;66758;-55
2023/10/16 01:49:44;;;;;;;41.00;26.40;;;;;;;5.41;100.00;99321.70;109284;1251;72778;-54
2023/10/16 01:52:11;;;;;;;49.00;30.90;;;;;;;5.42;100.00;99320.38;109362;1251;59638;-55
2023/10/16 01:54:44;;;;;;;44.20;28.50;;;;;;;5.42;100.00;99320.38;109460;1251;60252;-56
2023/10/16 01:57:14;;;;;;;41.40;26.80;;;;;;;5.44;100.00;99313.76;109406;1251;73432;-54
2023/10/16 01:59:44;;;;;;;43.00;29.10;;;;;;;5.48;100.00;99307.17;109331;1251;65918;-54
2023/10/16 02:02:13;;;;;;;38.60;26.60;;;;;;;5.51;100.00;99296.06;109250;1257;71441;-55
2023/10/16 02:04:42;;;;;;;42.00;27.20;;;;;;;5.54;100.00;99297.98;109311;1251;60361;-55
2023/10/16 02:07:11;;;;;;;40.60;28.00;;;;;;;5.55;100.00;99301.94;109442;1251;60222;-55
2023/10/16 02:09:40;;;;;;;39.40;27.60;;;;;;;5.56;100.00;99306.95;109477;1251;74704;-55
2023/10/16 02:12:14;;;;;;;42.80;25.90;;;;;;;5.54;100.00;99306.90;109477;1251;66971;-55
2023/10/16 02:14:44;;;;;;;40.40;27.20;;;;;;;5.54;100.00;99317.44;109405;1251;72752;-55
2023/10/16 02:17:19;;;;;;;43.40;28.60;;;;;;;5.54;100.00;99317.27;109383;1251;59237;-55
2023/10/16 02:19:48;;;;;;;41.30;28.80;;;;;;;5.52;100.00;99315.41;109406;1251;58934;-55
2023/10/16 02:22:16;;;;;;;37.40;27.80;;;;;;;5.49;100.00;99314.20;109342;1251;73439;-55
2023/10/16 02:24:48;;;;;;;39.90;27.10;;;;;;;5.47;100.00;99308.41;109429;1251;65639;-54
2023/10/16 02:27:18;;;;;;;39.00;26.30;;;;;;;5.46;100.00;99297.73;109413;1251;72745;-55
2023/10/16 02:29:51;;;;;;;39.90;28.80;;;;;;;5.46;100.00;99290.50;109415;1251;58928;-54
2023/10/16 02:32:22;;;;;;;40.20;27.90;;;;;;;5.46;100.00;99298.95;109384;1251;59423;-55
2023/10/16 02:34:51;;;;;;;39.80;27.80;;;;;;;5.44;100.00;99306.59;109489;1251;73443;-55
2023/10/16 02:37:20;;;;;;;39.40;28.20;;;;;;;5.41;100.00;99303.67;109488;1251;66283;-55
2023/10/16 02:39:53;;;;;;;37.20;27.60;;;;;;;5.38;100.00;99306.19;109416;1251;71486;-56
2023/10/16 02:42:26;;;;;;;40.50;26.70;;;;;;;5.35;100.00;99307.39;109487;1254;60897;-55
2023/10/16 02:44:56;;;;;;;42.10;27.30;;;;;;;5.30;100.00;99299.13;109538;1251;59995;-54
2023/10/16 02:47:26;;;;;;;42.80;28.00;;;;;;;5.26;100.00;99292.77;109439;1251;74959;-55
2023/10/16 02:49:56;;;;;;;36.70;26.30;;;;;;;5.22;100.00;99290.66;109432;1251;65788;-57
2023/10/16 02:52:25;;;;;;;41.70;26.70;;;;;;;5.15;100.00;99290.52;109444;1251;72743;-55
2023/10/16 02:54:56;;;;;;;44.30;28.50;;;;;;;5.08;100.00;99285.55;109338;1253;60663;-55
2023/10/16 02:57:27;;;;;;;35.10;26.10;;;;;;;5.02;100.00;99280.86;109301;1253;60007;-55
2023/10/16 02:59:56;;;;;;;40.10;26.30;;;;;;;4.99;100.00;99272.14;109176;1253;73456;-55
2023/10/16 03:02:27;;;;;;;41.00;27.20;;;;;;;4.98;100.00;99265.57;109248;1253;66797;-55
2023/10/16 03:05:10;;;;;;;39.00;27.60;;;;;;;4.97;100.00;99258.95;109383;1253;72772;-55
2023/10/16 03:07:44;;;;;;;39.30;26.00;;;;;;;4.97;100.00;99259.96;109195;1253;60121;-55
2023/10/16 03:10:13;;;;;;;36.80;25.30;;;;;;;4.97;100.00;99257.02;109394;1253;59995;-55
2023/10/16 03:12:42;;;;;;;36.90;26.30;;;;;;;4.97;100.00;99255.27;109154;1253;72471;-55
2023/10/16 03:17:56;;;;;;;37.10;26.30;;;;;;;4.99;100.00;99247.21;109313;1253;71378;-55
2023/10/16 03:20:28;;;;;;;39.30;25.90;;;;;;;4.99;100.00;99248.03;109221;1254;60130;-55
2023/10/16 03:22:59;;;;;;;;;;;;;;;4.99;100.00;99247.86;109383;1253;60514;-55
2023/10/16 03:28:09;;;;;;;36.20;26.50;;;;;;;4.98;100.00;99240.81;109186;1253;66988;-55
2023/10/16 03:30:39;;;;;;;37.20;24.10;;;;;;;4.96;100.00;99242.48;109377;1253;72739;-54
2023/10/16 03:33:07;;;;;;;37.00;26.10;;;;;;;4.95;100.00;99243.17;109368;1253;60188;-55
2023/10/16 03:35:38;;;;;;;32.40;25.20;;;;;;;4.94;100.00;99240.70;109117;1257;60410;-55
2023/10/16 03:38:10;;;;;;;36.40;26.00;;;;;;;4.95;100.00;99245.80;109237;1253;73949;-55
2023/10/16 03:40:42;;;;;;;44.70;26.40;;;;;;;4.95;100.00;99253.83;109393;1253;65832;-55
2023/10/16 03:43:09;;;;;;;36.50;25.10;;;;;;;4.96;100.00;99260.08;109341;1253;72707;-57
2023/10/16 03:45:40;;;;;;;38.10;24.20;;;;;;;4.97;100.00;99259.31;109208;1253;61694;-55
2023/10/16 03:48:10;;;;;;;33.20;25.00;;;;;;;4.98;100.00;99260.53;109203;1253;59409;-55
2023/10/16 03:50:39;;;;;;;39.20;26.10;;;;;;;5.00;100.00;99262.59;109234;1253;74691;-55
2023/10/16 03:53:07;;;;;;;30.90;23.80;;;;;;;5.01;100.00;99262.42;109155;1253;66204;-54
2023/10/16 03:55:46;;;;;;;36.20;26.20;;;;;;;5.03;100.00;99261.48;109129;1253;71487;-55
2023/10/16 03:58:14;;;;;;;36.70;24.80;;;;;;;5.08;100.00;99264.88;109206;1254;59689;-55
2023/10/16 04:00:56;;;;;;;33.30;23.40;;;;;;;5.15;100.00;99263.71;109327;1251;60033;-55
2023/10/16 04:03:26;;;;;;;31.10;24.80;;;;;;;5.24;100.00;99263.55;109487;1251;74742;-55
2023/10/16 04:05:55;;;;;;;34.00;25.20;;;;;;;5.33;100.00;99258.16;109478;1251;66139;-54
2023/10/16 04:08:23;;;;;;;32.10;23.50;;;;;;;5.44;100.00;99256.94;109434;1253;72722;-55
2023/10/16 04:10:53;;;;;;;35.90;25.70;;;;;;;5.53;100.00;99259.45;109376;1251;60998;-57
2023/10/16 04:13:27;;;;;;;37.40;24.50;;;;;;;5.65;100.00;99262.09;109424;1251;58893;-55
2023/10/16 04:18:32;;;;;;;34.60;24.30;;;;;;;5.92;100.00;99260.59;109390;1251;66793;-55
2023/10/16 04:26:47;;;;;;;35.00;24.70;;;;;;;6.32;100.00;99264.38;109101;1253;59490;-55
2023/10/16 04:31:55;;;;;;;36.20;23.60;;;;;;;6.79;100.00;99262.33;109111;1253;65698;-55
2023/10/16 04:50:30;;;;;;;28.90;21.80;;;;;;;8.93;100.00;99260.95;109218;1253;61171;-55
2023/10/16 04:53:25;;;;;;;26.20;21.60;;;;;;;9.21;100.00;99262.41;109262;1253;60097;-56
2023/10/16 04:55:54;;;;;;;30.80;23.20;;;;;;;9.41;100.00;99260.58;109182;1253;74734;-57
2023/10/16 05:06:15;;;;;;;30.00;20.90;;;;;;;10.02;100.00;99242.63;109467;1251;60461;-55
2023/10/16 05:14:39;;;;;;;28.70;20.80;;;;;;;10.56;100.00;99222.30;109161;1254;72789;-56
2023/10/16 05:17:21;;;;;;;30.70;21.50;;;;;;;10.74;100.00;99215.79;109470;1251;59016;-55
2023/10/16 06:15:21;;;;;;;17.60;14.80;;;;;;;20.50;100.00;99045.19;109493;1251;59033;-57
2023/10/16 06:17:51;;;;;;;18.90;15.70;;;;;;;20.62;100.00;99043.60;109420;1251;73410;-56
2023/10/16 06:20:22;;;;;;;19.30;16.50;;;;;;;20.70;99.31;99042.80;109492;1251;67127;-56
2023/10/16 06:22:52;;;;;;;20.90;16.20;;;;;;;20.72;99.41;99044.75;109465;1251;72795;-56
2023/10/16 06:25:28;;;;;;;17.00;15.20;;;;;;;20.97;99.46;99041.72;109405;1251;60136;-56
2023/10/16 06:27:56;;;;;;;17.90;15.00;;;;;;;21.21;92.76;99038.29;109507;1251;60065;-56
2023/10/16 06:30:24;;;;;;;18.10;15.50;;;;;;;21.28;90.56;99032.91;109279;1253;74724;-56
2023/10/16 06:32:52;;;;;;;18.10;16.00;;;;;;;21.40;88.46;99034.33;109206;1253;65764;-56
2023/10/16 06:35:20;;;;;;;19.60;16.60;;;;;;;21.49;87.03;99032.58;109356;1253;72787;-58
2023/10/16 06:37:55;;;;;;;19.30;16.10;;;;;;;21.60;83.97;99030.01;109215;1256;60201;-56
2023/10/16 06:40:26;;;;;;;21.60;19.40;;;;;;;21.60;82.49;99027.50;109394;1252;60269;-57
2023/10/16 06:43:13;;;;;;;20.60;17.40;;;;;;;21.70;84.37;99025.61;109195;1253;74746;-56
2023/10/16 06:45:55;;;;;;;22.20;18.80;;;;;;;21.95;83.57;99022.72;109431;1253;66936;-57
2023/10/16 06:48:27;;;;;;;19.60;17.50;;;;;;;22.35;79.36;99025.01;109398;1253;71435;-56
2023/10/16 06:51:03;;;;;;;20.10;17.90;;;;;;;22.73;74.62;99020.30;109156;1252;62163;-58
2023/10/16 06:53:33;;;;;;;18.30;16.30;;;;;;;23.00;69.11;99018.13;109247;1253;59524;-56
2023/10/16 06:56:02;;;;;;;17.80;15.90;;;;;;;23.22;68.15;99011.98;109403;1252;73445;-57
2023/10/16 06:58:31;;;;;;;18.90;16.90;;;;;;;23.51;64.32;99009.00;109278;1253;67075;-57
2023/10/16 07:00:58;;;;;;;19.60;16.30;;;;;;;23.73;61.32;98998.73;109185;1251;72771;-56
2023/10/16 07:03:28;;;;;;;17.70;15.40;;;;;;;23.93;60.60;99001.11;109435;1251;61019;-56
2023/10/16 07:05:57;;;;;;;19.50;16.10;;;;;;;24.18;59.42;98999.29;109430;1253;60560;-57
2023/10/16 07:08:25;;;;;;;19.30;14.90;;;;;;;24.44;57.64;98994.04;109206;1253;72958;-57
2023/10/16 07:10:55;;;;;;;19.00;14.20;;;;;;;24.66;56.98;98989.42;109122;1253;67746;-59
2023/10/16 07:13:31;;;;;;;16.90;13.70;;;;;;;24.89;57.52;98987.04;109153;1253;72769;-56
2023/10/16 07:16:03;;;;;;;22.80;20.50;;;;;;;25.21;56.19;98973.91;109137;1253;58950;-57
2023/10/16 07:18:33;;;;;;;15.30;12.80;;;;;;;25.46;54.62;98967.73;109094;1255;59513;-57
2023/10/16 07:23:34;;;;;;;14.40;12.40;;;;;;;25.98;51.34;98964.91;109206;1253;65630;-57
2023/10/16 07:26:16;;;;;;;13.20;11.50;;;;;;;26.18;50.20;98963.48;109389;1253;71993;-56
2023/10/16 07:28:53;;;;;;;14.10;11.30;;;;;;;26.29;47.78;98958.98;109356;1253;60339;-56
2023/10/16 07:31:22;;;;;;;13.20;10.80;;;;;;;26.25;48.04;98958.05;109363;1253;60036;-55
2023/10/16 07:33:59;;;;;;;14.20;12.10;;;;;;;26.26;48.10;98952.11;109374;1253;74816;-57
2023/10/16 07:36:27;;;;;;;18.90;14.20;;;;;;;26.26;48.40;98946.60;109433;1253;67516;-56
2023/10/16 07:38:55;;;;;;;18.70;13.00;;;;;;;26.29;49.11;98946.66;109388;1253;72638;-56
2023/10/16 07:41:23;;;;;;;18.90;14.30;;;;;;;26.40;48.45;98946.50;109367;1253;60160;-57
2023/10/16 07:43:57;;;;;;;17.00;13.00;;;;;;;26.33;47.86;98954.63;109194;1253;59351;-56
2023/10/16 07:46:31;;;;;;;13.30;11.90;;;;;;;26.03;48.44;98948.30;109375;1252;73487;-57
2023/10/16 07:49:09;;;;;;;15.60;12.10;;;;;;;25.57;49.76;98949.42;109376;1253;65866;-56
2023/10/16 07:51:45;;;;;;;13.40;11.50;;;;;;;25.22;52.08;98944.08;109377;1251;71903;-56
2023/10/16 07:54:13;;;;;;;16.60;12.90;;;;;;;24.92;53.32;98933.39;109435;1251;59005;-57
2023/10/16 07:56:41;;;;;;;15.20;12.50;;;;;;;24.66;56.97;98929.05;109475;1251;60080;-56
2023/10/16 07:59:18;;;;;;;13.20;11.40;;;;;;;24.50;58.54;98929.21;109409;1251;75236;-56
2023/10/16 08:01:52;;;;;;;15.20;12.00;;;;;;;24.35;61.17;98928.07;109485;1251;69377;-57
2023/10/16 08:08:00;;;;;;;;;;;;;;;24.20;68.23;98920.27;109424;1251;59385;-56
2023/10/16 08:12:43;;;;;;;79.40;55.00;;;;;;;24.28;70.63;98916.08;109356;1253;77604;-56
2023/10/16 08:15:14;;;;;;;39.80;26.60;;;;;;;24.20;70.89;98911.69;109227;1253;66021;-56
2023/10/16 08:17:44;;;;;;;28.20;23.00;;;;;;;24.00;73.44;98912.45;109134;1254;71891;-56
2023/10/16 08:20:17;;;;;;;87.80;60.80;;;;;;;23.75;75.16;98906.90;109204;1254;60334;-57
2023/10/16 08:22:46;;;;;;;42.30;33.80;;;;;;;23.35;79.51;98904.33;109274;1253;60155;-55
2023/10/16 08:25:30;;;;;;;103.20;80.50;;;;;;;23.11;84.76;98901.94;109189;1253;74757;-55
2023/10/16 08:28:00;;;;;;;39.90;30.70;;;;;;;23.05;87.31;98895.73;109249;1254;67480;-55
2023/10/16 08:30:33;;;;;;;120.40;100.20;;;;;;;23.11;90.29;98890.34;109299;1251;72765;-55
2023/10/16 08:33:08;;;;;;;45.00;32.60;;;;;;;23.42;88.65;98884.82;109460;1251;61503;-56
2023/10/16 08:35:38;;;;;;;23.20;18.60;;;;;;;23.78;83.24;98876.91;109458;1251;60083;-55
2023/10/16 08:38:25;;;;;;;14.80;11.40;;;;;;;24.00;79.31;98872.52;109469;1251;73344;-56
2023/10/16 08:41:07;;;;;;;12.70;9.20;;;;;;;24.10;74.54;98862.02;109453;1251;65816;-56
2023/10/16 08:43:53;;;;;;;;;;;;;;;24.09;73.66;98857.62;109495;1251;72918;-56
2023/10/16 08:46:44;;;;;;;13.60;8.90;;;;;;;24.00;72.59;98855.99;109463;1254;60121;-56
2023/10/16 08:49:13;;;;;;;48.60;35.70;;;;;;;23.97;75.84;98850.16;109450;1256;58931;-56
2023/10/16 08:51:40;;;;;;;18.60;14.80;;;;;;;24.23;76.27;98841.19;109485;1251;73345;-56
2023/10/16 08:54:35;;;;;;;20.20;17.20;;;;;;;24.48;72.39;98832.98;109493;1251;65072;-56
2023/10/16 08:56:56;;;;;;;19.20;17.20;;;;;;;24.59;70.78;98835.40;109394;1257;74862;-55
2023/10/16 08:59:25;;;;;;;33.40;23.90;;;;;;;24.64;70.83;98832.56;109033;1253;60129;-56
2023/10/16 09:01:54;;;;;;;31.10;21.40;;;;;;;24.67;68.93;98828.90;109098;1253;59945;-56
2023/10/16 09:04:24;;;;;;;18.60;11.40;;;;;;;24.60;70.86;98822.12;109165;1253;74728;-57
2023/10/16 09:06:52;;;;;;;19.60;12.80;;;;;;;24.46;70.33;98817.65;109135;1252;67040;-56
2023/10/16 09:09:20;;;;;;;22.80;17.90;;;;;;;24.31;74.53;98813.36;109375;1253;72717;-56
2023/10/16 09:11:49;;;;;;;17.90;14.50;;;;;;;24.32;72.86;98813.06;109220;1253;61153;-56
2023/10/16 09:14:20;;;;;;;10.90;7.80;;;;;;;24.28;70.14;98808.59;109194;1254;59048;-56
2023/10/16 09:16:51;;;;;;;13.80;10.10;;;;;;;24.06;71.61;98804.81;109236;1254;75659;-57
2023/10/16 09:19:20;;;;;;;12.10;9.00;;;;;;;23.78;77.82;98799.28;109217;1253;66920;-56
2023/10/16 09:21:52;;;;;;;11.70;8.40;;;;;;;23.68;81.63;98790.80;109102;1255;74537;-56
2023/10/16 09:24:22;;;;;;;12.80;7.90;;;;;;;23.64;82.35;98788.28;109126;1254;59339;-56
2023/10/16 09:26:54;;;;;;;10.60;5.90;;;;;;;23.54;87.28;98790.60;109385;1254;60850;-57
2023/10/16 09:29:26;;;;;;;8.10;5.30;;;;;;;23.49;86.46;98788.58;109172;1252;73413;-56
2023/10/16 09:31:54;;;;;;;7.70;4.50;;;;;;;23.35;89.76;98778.71;109165;1254;66812;-56
2023/10/16 09:34:25;;;;;;;8.00;5.10;;;;;;;23.19;92.81;98775.23;109444;1251;73745;-56
2023/10/16 09:39:40;;;;;;;6.60;4.30;;;;;;;22.50;98.95;98766.70;109436;1251;60178;-58
2023/10/16 09:42:11;;;;;;;7.90;5.10;;;;;;;22.06;100.00;98773.02;109510;1251;76589;-56
2023/10/16 09:44:56;;;;;;;9.30;5.90;;;;;;;21.54;100.00;98773.20;109516;1251;67335;-55
2023/10/16 09:47:27;;;;;;;9.40;6.80;;;;;;;21.03;100.00;98769.42;109494;1251;71451;-58
2023/10/16 09:49:58;;;;;;;9.20;5.60;;;;;;;20.69;100.00;98771.76;109482;1251;62350;-58
2023/10/16 09:52:33;;;;;;;9.20;6.30;;;;;;;20.45;100.00;98765.48;109330;1253;58913;-58
2023/10/16 09:55:05;;;;;;;12.40;4.40;;;;;;;20.23;100.00;98761.08;109386;1253;74687;-57
2023/10/16 09:57:34;;;;;;;9.40;5.30;;;;;;;20.02;100.00;98757.09;109347;1253;68280;-56
2023/10/16 10:00:28;;;;;;;9.70;4.60;;;;;;;19.89;100.00;98754.11;109425;1251;74782;-57
2023/10/16 10:02:51;;;;;;;7.50;3.60;;;;;;;19.83;100.00;98744.17;109475;1251;60501;-56
2023/10/16 10:05:22;;;;;;;7.00;3.60;;;;;;;19.79;100.00;98746.34;109425;1254;59519;-56
2023/10/16 10:07:50;;;;;;;8.70;3.20;;;;;;;19.76;100.00;98740.08;109485;1251;76787;-57
2023/10/16 10:13:08;;;;;;;5.90;3.50;;;;;;;19.66;100.00;98732.60;109322;1254;72758;-58
2023/10/16 10:15:44;;;;;;;9.60;3.90;;;;;;;19.56;100.00;98727.13;109191;1254;60097;-56
2023/10/16 10:18:32;;;;;;;12.50;7.20;;;;;;;19.45;100.00;98727.54;109251;1253;59293;-56
2023/10/16 10:21:02;;;;;;;12.50;8.40;;;;;;;19.39;100.00;98722.58;109152;1253;77274;-55
2023/10/16 10:23:32;;;;;;;7.00;4.30;;;;;;;19.49;100.00;98719.10;109271;1252;69295;-54
2023/10/16 10:26:01;;;;;;;7.40;4.30;;;;;;;19.81;100.00;98713.52;109363;1254;75012;-55
2023/10/16 10:28:32;;;;;;;11.10;6.80;;;;;;;20.27;100.00;98707.54;109176;1253;61433;-54
2023/10/16 10:31:05;;;;;;;12.60;8.10;;;;;;;20.71;100.00;98697.85;109381;1253;60933;-54
2023/10/16 10:33:51;;;;;;;8.50;4.10;;;;;;;20.91;100.00;98696.07;109240;1253;76806;-56
2023/10/16 10:36:29;;;;;;;7.70;4.20;;;;;;;20.85;100.00;98701.94;109391;1257;67818;-55
2023/10/16 10:39:20;;;;;;;10.80;6.20;;;;;;;20.82;100.00;98698.16;109419;1254;74816;-54
2023/10/16 10:42:03;;;;;;;7.20;2.90;;;;;;;20.66;100.00;98702.91;109161;1253;60228;-54
2023/10/16 10:44:39;;;;;;;7.80;2.80;;;;;;;20.37;100.00;98700.52;109383;1253;62337;-55
2023/10/16 10:47:23;;;;;;;6.20;3.00;;;;;;;20.08;100.00;98692.00;109382;1253;77082;-55
2023/10/16 10:49:51;;;;;;;6.50;3.50;;;;;;;19.83;100.00;98684.05;109376;1254;66845;-55
2023/10/16 10:52:20;;;;;;;8.00;3.50;;;;;;;19.76;100.00;98672.86;109336;1254;73572;-55
2023/10/16 10:54:57;;;;;;;6.70;2.60;;;;;;;19.75;100.00;98667.74;109243;1253;59453;-55
2023/10/16 10:57:26;;;;;;;7.00;3.00;;;;;;;19.80;100.00;98664.77;109266;1253;63442;-55
2023/10/16 11:00:22;;;;;;;5.10;3.70;;;;;;;19.90;100.00;98659.74;109360;1254;76957;-55
2023/10/16 11:05:24;;;;;;;5.10;2.50;;;;;;;19.62;100.00;98651.70;109420;1254;74806;-55
2023/10/16 11:10:41;;;;;;;4.80;2.70;;;;;;;19.06;100.00;98639.23;109112;1253;61065;-55
2023/10/16 11:13:09;;;;;;;6.60;2.60;;;;;;;18.80;100.00;98637.83;109425;1251;75512;-56
2023/10/16 11:15:54;;;;;;;5.60;3.10;;;;;;;18.65;100.00;98640.54;109474;1251;68062;-56
2023/10/16 11:18:26;;;;;;;6.20;3.20;;;;;;;18.52;100.00;98632.83;109324;1251;76218;-56
2023/10/16 11:20:54;;;;;;;7.00;3.60;;;;;;;18.36;100.00;98631.14;109454;1251;62453;-55
2023/10/16 11:23:25;;;;;;;5.70;3.50;;;;;;;18.20;100.00;98635.55;109463;1251;62821;-55
2023/10/16 11:25:53;;;;;;;9.10;2.90;;;;;;;18.09;100.00;98633.02;109436;1251;75421;-56
2023/10/16 11:28:28;;;;;;;8.90;3.60;;;;;;;17.98;100.00;98629.02;109216;1251;69238;-56
2023/10/16 11:30:57;;;;;;;6.30;3.10;;;;;;;17.92;100.00;98624.62;109445;1253;73794;-56
2023/10/16 11:33:35;;;;;;;6.00;3.80;;;;;;;17.85;100.00;98632.45;109450;1251;59866;-56
2023/10/16 11:36:03;;;;;;;7.40;4.30;;;;;;;17.78;100.00;98624.67;109489;1251;60335;-55
2023/10/16 11:38:34;;;;;;;8.40;4.80;;;;;;;17.71;100.00;98627.05;109470;1251;74709;-56
2023/10/16 11:41:11;;;;;;;8.40;5.10;;;;;;;17.64;100.00;98629.77;109488;1252;69256;-56
2023/10/16 11:43:47;;;;;;;10.50;5.80;;;;;;;17.55;100.00;98622.63;109422;1251;72748;-55
2023/10/16 11:51:51;;;;;;;11.40;6.50;;;;;;;17.28;100.00;98619.79;109477;1251;76842;-56
2023/10/16 11:54:20;;;;;;;11.50;7.00;;;;;;;17.23;100.00;98614.43;109442;1251;67595;-56
2023/10/16 11:56:48;;;;;;;11.90;7.10;;;;;;;17.19;100.00;98611.12;109450;1251;74208;-55
2023/10/16 11:59:19;;;;;;;12.70;6.80;;;;;;;17.16;100.00;98613.55;109458;1251;62242;-55
2023/10/16 12:01:53;;;;;;;;;;;;;;;17.13;100.00;98609.80;109507;1251;60982;-55
2023/10/16 12:04:29;;;;;;;10.40;6.90;;;;;;;17.08;100.00;98612.46;109444;1251;74663;-55
2023/10/16 12:07:17;;;;;;;13.20;9.00;;;;;;;16.98;100.00;98610.88;109517;1251;66928;-55
2023/10/16 12:09:48;;;;;;;15.00;9.70;;;;;;;16.88;100.00;98612.05;109464;1251;74408;-56
2023/10/16 12:12:24;;;;;;;18.70;10.60;;;;;;;16.80;100.00;98616.10;109464;1254;61095;-55
2023/10/16 12:14:53;;;;;;;18.10;11.40;;;;;;;16.72;100.00;98626.34;109525;1251;60184;-55
2023/10/16 12:17:21;;;;;;;16.90;9.30;;;;;;;16.63;100.00;98650.11;109511;1251;74803;-55
2023/10/16 12:19:51;;;;;;;8.40;5.10;;;;;;;16.44;100.00;98684.91;109399;1251;67076;-57
2023/10/16 12:22:20;;;;;;;4.60;1.80;;;;;;;15.95;100.00;98696.25;109503;1251;72553;-56
2023/10/16 12:24:49;;;;;;;2.40;1.10;;;;;;;15.31;100.00;98709.29;109186;1253;217706;-57
2023/10/16 12:27:17;;;;;;;1.70;0.80;;;;;;;14.66;100.00;98716.64;109358;1253;63406;-59
2023/10/16 12:29:45;;;;;;;1.50;0.60;;;;;;;14.03;100.00;98728.11;109221;1253;74716;-60
2023/10/16 12:32:13;;;;;;;0.70;0.30;;;;;;;13.46;100.00;98745.90;109263;1253;67616;-59
2023/10/16 12:34:41;;;;;;;1.20;0.30;;;;;;;12.96;100.00;98769.08;109338;1253;72798;-59
2023/10/16 12:37:11;;;;;;;1.80;0.30;;;;;;;12.52;100.00;98801.55;109316;1253;63878;-61
2023/10/16 12:39:45;;;;;;;1.00;0.40;;;;;;;12.12;100.00;98798.12;109322;1253;62510;-67
2023/10/16 12:42:15;;;;;;;1.20;0.30;;;;;;;11.75;100.00;98798.98;109342;1253;75745;-62
2023/10/16 12:44:43;;;;;;;0.90;0.20;;;;;;;11.46;100.00;98806.97;109231;1253;67466;-61
2023/10/16 12:47:14;;;;;;;0.70;0.20;;;;;;;11.21;100.00;98802.48;109244;1254;73468;-62
2023/10/16 12:50:04;;;;;;;1.30;0.30;;;;;;;10.94;100.00;98770.92;109231;1253;62696;-61
2023/10/16 12:52:32;;;;;;;0.50;0.20;;;;;;;10.72;100.00;98776.09;109263;1253;58895;-61
2023/10/16 12:55:01;;;;;;;1.30;0.30;;;;;;;10.60;100.00;98770.12;109370;1252;75522;-61
2023/10/16 12:57:29;;;;;;;0.90;0.30;;;;;;;10.48;100.00;98779.13;109416;1251;69373;-62
2023/10/16 12:59:56;;;;;;;1.10;0.30;;;;;;;10.34;100.00;98802.60;109457;1251;76201;-62
2023/10/16 13:02:27;;;;;;;1.30;0.30;;;;;;;10.21;100.00;98817.98;109446;1254;63059;-60
2023/10/16 13:05:01;;;;;;;1.00;0.20;;;;;;;10.08;100.00;98819.98;109469;1251;61409;-61
2023/10/16 13:07:29;;;;;;;1.10;0.30;;;;;;;9.93;100.00;98838.09;109464;1251;78445;-61
2023/10/16 13:10:14;;;;;;;1.10;0.30;;;;;;;9.76;100.00;98869.86;109290;1253;69771;-63
2023/10/16 13:12:43;;;;;;;0.60;0.20;;;;;;;9.61;100.00;98855.11;109214;1253;74244;-62
2023/10/16 13:15:24;;;;;;;0.80;0.10;;;;;;;9.44;100.00;98866.17;109174;1253;63271;-61
2023/10/16 13:17:52;;;;;;;0.60;0.30;;;;;;;9.33;100.00;98884.52;109377;1253;61280;-60
2023/10/16 13:20:27;;;;;;;1.50;0.20;;;;;;;9.26;100.00;98892.77;109178;1253;73532;-62
2023/10/16 13:22:56;;;;;;;1.10;0.20;;;;;;;9.23;100.00;98884.58;109218;1253;68311;-63
2023/10/16 13:25:25;;;;;;;2.80;1.20;;;;;;;9.22;100.00;98881.43;109148;1254;73501;-61
2023/10/16 13:27:53;;;;;;;2.20;0.70;;;;;;;9.21;100.00;98878.08;109167;1253;64087;-61
2023/10/16 13:30:25;;;;;;;1.90;0.70;;;;;;;9.19;100.00;98878.63;109297;1253;62786;-61
2023/10/16 13:32:54;;;;;;;5.10;1.80;;;;;;;9.25;100.00;98876.33;109272;1253;77084;-65
2023/10/16 13:35:23;;;;;;;13.70;4.90;;;;;;;9.29;100.00;98874.30;109260;1253;68786;-61
2023/10/16 13:37:50;;;;;;;3.20;1.10;;;;;;;9.30;100.00;98896.42;109222;1252;74882;-62
2023/10/16 13:40:22;;;;;;;1.70;0.40;;;;;;;9.29;100.00;98915.17;109198;1253;62726;-62
2023/10/16 13:43:00;;;;;;;1.60;0.40;;;;;;;9.28;100.00;98916.33;109331;1253;58934;-63
2023/10/16 13:45:28;;;;;;;1.00;0.30;;;;;;;9.19;100.00;98912.79;109396;1253;74729;-61